Time;durP1;ratioP1;P1;durP2;ratioP2;P2;SDS_P1;SDS_P2;PMS_P1;PMS_P2;Temp;Humidity;BMP_temperature;BMP_pressure;BME280_temperature;BME280_humidity;BME280_pressure;Samples;Min_cycle;Max_cycle;Signal;HPM_P1;HPM_P2
2023/03/18 00:01:20;;;;;;;4.57;2.80;;;11.20;76.50;;;;;;5113939;28;20742;-74
2023/03/18 00:03:47;;;;;;;6.73;2.53;;;11.20;76.90;;;;;;5113837;28;20081;-74
2023/03/18 00:06:15;;;;;;;7.13;2.97;;;11.10;76.20;;;;;;5113525;28;20038;-74
2023/03/18 00:08:44;;;;;;;5.50;3.20;;;11.10;77.70;;;;;;5112288;28;20027;-74
2023/03/18 00:11:11;;;;;;;7.00;3.10;;;10.90;78.00;;;;;;5113710;28;20118;-74
2023/03/18 00:13:38;;;;;;;8.80;2.55;;;10.90;77.70;;;;;;5112815;28;20830;-74
2023/03/18 00:16:04;;;;;;;;;;;11.00;76.40;;;;;;5111723;28;20028;-75
2023/03/18 00:18:31;;;;;;;11.15;3.15;;;11.10;76.90;;;;;;5111575;27;20631;-74
2023/03/18 00:20:58;;;;;;;8.02;2.80;;;10.90;77.00;;;;;;5112340;28;20059;-75
2023/03/18 00:23:25;;;;;;;6.97;2.60;;;10.90;77.40;;;;;;5110194;28;20469;-74
2023/03/18 00:25:55;;;;;;;10.02;3.80;;;10.90;78.10;;;;;;5113007;28;20023;-74
2023/03/18 00:28:21;;;;;;;6.93;2.63;;;10.80;78.30;;;;;;5111200;28;20035;-73
2023/03/18 00:30:48;;;;;;;;;;;10.90;77.90;;;;;;5113385;28;20026;-73
2023/03/18 00:33:15;;;;;;;8.85;3.15;;;10.80;79.40;;;;;;5111517;28;19985;-74
2023/03/18 00:35:41;;;;;;;8.60;3.13;;;10.80;78.60;;;;;;5113689;28;20028;-72
2023/03/18 00:38:08;;;;;;;14.55;2.95;;;10.80;78.90;;;;;;5113025;28;20141;-73
2023/03/18 00:40:52;;;;;;;7.28;3.13;;;10.70;79.00;;;;;;5111729;28;20403;-73
2023/03/18 00:43:21;;;;;;;8.70;2.88;;;10.60;79.80;;;;;;5112207;28;20025;-74
2023/03/18 00:45:49;;;;;;;9.02;3.63;;;10.70;79.80;;;;;;5109690;28;20507;-73
2023/03/18 00:48:15;;;;;;;8.68;3.20;;;10.60;80.80;;;;;;5110562;28;20023;-72
2023/03/18 00:50:42;;;;;;;;;;;10.60;81.10;;;;;;5112903;28;20027;-74
2023/03/18 00:53:07;;;;;;;5.80;2.25;;;10.60;80.40;;;;;;5111012;28;19907;-74
2023/03/18 00:55:33;;;;;;;10.03;3.37;;;10.60;81.80;;;;;;5112219;28;20515;-74
2023/03/18 00:57:59;;;;;;;5.57;2.60;;;10.60;81.30;;;;;;5112535;28;20030;-74
2023/03/18 01:00:25;;;;;;;8.52;2.80;;;10.50;82.30;;;;;;5112730;28;20451;-74
2023/03/18 01:02:52;;;;;;;7.90;2.65;;;10.50;81.10;;;;;;5111530;28;20046;-74
2023/03/18 01:05:18;;;;;;;14.48;5.43;;;10.60;82.00;;;;;;5110101;28;20031;-74
2023/03/18 01:07:44;;;;;;;11.52;5.82;;;10.50;82.50;;;;;;5110687;28;20038;-74
2023/03/18 01:10:14;;;;;;;11.10;4.85;;;10.40;82.60;;;;;;5112331;28;20066;-73
2023/03/18 01:12:41;;;;;;;11.98;3.90;;;10.40;82.20;;;;;;5111033;28;20090;-73
2023/03/18 01:15:11;;;;;;;6.88;3.50;;;10.30;83.20;;;;;;5112570;28;20059;-74
2023/03/18 01:17:37;;;;;;;12.70;3.72;;;10.30;83.50;;;;;;5112539;28;20058;-74
2023/03/18 01:20:03;;;;;;;9.73;3.27;;;10.30;84.80;;;;;;5111673;28;20046;-73
2023/03/18 01:22:29;;;;;;;9.18;3.63;;;10.10;84.60;;;;;;5112550;28;20119;-74
2023/03/18 01:24:56;;;;;;;6.70;3.07;;;10.00;87.00;;;;;;5112103;28;20103;-73
2023/03/18 01:27:22;;;;;;;10.18;4.10;;;10.10;85.40;;;;;;5112249;28;20270;-72
2023/03/18 01:29:47;;;;;;;6.32;3.40;;;10.10;85.70;;;;;;5112671;28;20019;-72
2023/03/18 01:32:13;;;;;;;10.57;3.10;;;10.00;86.20;;;;;;5112546;28;20035;-73
2023/03/18 01:34:40;;;;;;;7.43;3.15;;;10.00;85.50;;;;;;5112310;28;20442;-73
2023/03/18 01:37:06;;;;;;;11.00;3.25;;;10.10;85.70;;;;;;5112046;28;20035;-72
2023/03/18 01:39:33;;;;;;;13.63;3.47;;;10.10;86.20;;;;;;5112631;28;20079;-72
2023/03/18 01:41:59;;;;;;;6.55;3.00;;;10.10;85.20;;;;;;5111225;28;20435;-72
2023/03/18 01:44:26;;;;;;;;;;;10.00;86.70;;;;;;5112154;28;20031;-72
2023/03/18 01:46:52;;;;;;;10.63;3.50;;;10.00;86.20;;;;;;5112004;28;19908;-72
2023/03/18 01:49:23;;;;;;;9.30;2.97;;;10.10;86.60;;;;;;5112006;28;20027;-72
2023/03/18 01:51:55;;;;;;;6.88;3.47;;;9.90;87.00;;;;;;5110468;28;20038;-72
2023/03/18 01:54:22;;;;;;;9.88;3.30;;;9.90;87.80;;;;;;5110425;28;20040;-72
2023/03/18 01:56:50;;;;;;;7.13;3.65;;;9.70;88.70;;;;;;5111600;28;20065;-72
2023/03/18 01:59:17;;;;;;;10.93;4.55;;;9.60;89.60;;;;;;5111312;28;20027;-72
2023/03/18 02:01:57;;;;;;;7.63;3.22;;;9.70;88.40;;;;;;5126547;27;20556;-72
2023/03/18 02:04:27;;;;;;;9.15;3.40;;;9.80;88.10;;;;;;5111044;28;20019;-72
2023/03/18 02:06:53;;;;;;;9.23;3.78;;;9.70;88.70;;;;;;5111248;28;20028;-72
2023/03/18 02:09:19;;;;;;;5.90;3.20;;;9.70;89.40;;;;;;5110149;28;20031;-73
2023/03/18 02:11:48;;;;;;;9.60;3.40;;;9.70;89.70;;;;;;5111227;28;20294;-72
2023/03/18 02:14:16;;;;;;;9.10;3.58;;;9.70;89.20;;;;;;5111200;27;20393;-72
2023/03/18 02:16:58;;;;;;;9.98;3.75;;;9.60;89.70;;;;;;5109565;28;20032;-72
2023/03/18 02:20:02;;;;;;;10.23;3.30;;;9.60;90.50;;;;;;5110862;28;20030;-72
2023/03/18 02:22:30;;;;;;;8.38;3.22;;;9.50;90.10;;;;;;5057118;28;20044;-72
2023/03/18 02:25:05;;;;;;;8.75;3.42;;;9.50;90.50;;;;;;5067148;28;20021;-72
2023/03/18 02:27:39;;;;;;;9.40;3.22;;;9.50;90.50;;;;;;5070136;28;20036;-72
2023/03/18 02:30:12;;;;;;;5.78;3.10;;;9.40;90.80;;;;;;5098665;28;20069;-72
2023/03/18 02:32:40;;;;;;;11.57;3.65;;;9.30;91.30;;;;;;5111029;28;20500;-72
2023/03/18 02:35:09;;;;;;;7.03;3.05;;;9.20;91.80;;;;;;5110781;28;20034;-72
2023/03/18 02:37:35;;;;;;;8.68;4.07;;;9.00;92.20;;;;;;5106679;28;20027;-72
2023/03/18 02:40:18;;;;;;;8.97;3.17;;;9.00;92.00;;;;;;5108435;28;20035;-72
2023/03/18 02:42:45;;;;;;;12.15;3.72;;;9.00;92.50;;;;;;5104959;28;20303;-73
2023/03/18 02:45:16;;;;;;;;;;;8.80;92.40;;;;;;5110961;28;20045;-73
2023/03/18 02:47:46;;;;;;;9.88;4.03;;;8.80;92.90;;;;;;5108678;28;19915;-73
2023/03/18 02:50:11;;;;;;;7.15;3.70;;;8.80;93.30;;;;;;5110336;28;20068;-73
2023/03/18 02:52:37;;;;;;;7.57;3.50;;;8.80;92.70;;;;;;5110874;28;20020;-73
2023/03/18 02:55:03;;;;;;;10.13;3.67;;;8.80;92.80;;;;;;5110073;28;20479;-73
2023/03/18 02:57:29;;;;;;;15.15;4.35;;;8.80;92.80;;;;;;5110466;28;20527;-72
2023/03/18 02:59:55;;;;;;;10.17;3.30;;;8.70;93.10;;;;;;5110670;28;20023;-72
2023/03/18 03:02:21;;;;;;;5.97;3.08;;;8.60;93.70;;;;;;5110591;28;20152;-72
2023/03/18 03:04:46;;;;;;;8.23;3.38;;;8.60;93.70;;;;;;5110406;28;20023;-72
2023/03/18 03:07:12;;;;;;;7.40;3.87;;;8.50;93.50;;;;;;5110373;28;20028;-73
2023/03/18 03:09:37;;;;;;;11.00;3.47;;;8.60;93.70;;;;;;5110247;28;20031;-72
2023/03/18 03:12:03;;;;;;;9.17;3.87;;;8.50;93.70;;;;;;5110437;28;20043;-73
2023/03/18 03:14:29;;;;;;;5.93;3.20;;;8.50;94.00;;;;;;5110025;28;20589;-72
2023/03/18 03:16:55;;;;;;;7.47;3.03;;;8.50;94.30;;;;;;5126372;28;20035;-72
2023/03/18 03:19:21;;;;;;;6.10;3.08;;;8.50;94.00;;;;;;5110159;28;20019;-73
2023/03/18 03:21:47;;;;;;;14.50;4.33;;;8.40;94.20;;;;;;5110636;28;20031;-73
2023/03/18 03:24:12;;;;;;;10.57;3.83;;;8.30;94.30;;;;;;5125941;28;20560;-73
2023/03/18 03:26:38;;;;;;;10.70;3.63;;;8.40;94.50;;;;;;5110331;28;20102;-73
2023/03/18 03:29:05;;;;;;;15.15;4.22;;;8.40;94.70;;;;;;5109681;28;20024;-73
2023/03/18 03:31:31;;;;;;;12.00;3.95;;;8.20;94.90;;;;;;5108520;28;20020;-73
2023/03/18 03:33:57;;;;;;;14.80;4.57;;;8.20;94.90;;;;;;5125271;28;20019;-73
2023/03/18 03:36:23;;;;;;;9.67;4.63;;;8.30;95.30;;;;;;5109120;28;20027;-73
2023/03/18 03:38:49;;;;;;;8.83;4.03;;;8.30;94.90;;;;;;5108361;28;20036;-72
2023/03/18 03:41:15;;;;;;;12.70;4.95;;;8.30;94.80;;;;;;5108626;28;20089;-72
2023/03/18 03:43:42;;;;;;;19.05;5.07;;;8.20;95.40;;;;;;5110974;28;20027;-73
2023/03/18 03:46:09;;;;;;;15.43;6.47;;;8.20;95.40;;;;;;5112365;28;20030;-73
2023/03/18 03:48:34;;;;;;;7.00;4.30;;;8.10;95.20;;;;;;5106108;28;20028;-72
2023/03/18 03:51:01;;;;;;;12.37;5.23;;;8.00;95.90;;;;;;5101746;28;20088;-72
2023/03/18 03:53:27;;;;;;;;;;;8.00;95.90;;;;;;5113394;28;20024;-73
2023/03/18 03:55:53;;;;;;;14.38;4.95;;;8.10;95.70;;;;;;5112115;28;19934;-73
2023/03/18 03:58:20;;;;;;;12.00;5.18;;;8.10;95.80;;;;;;5112181;27;20031;-72
2023/03/18 04:00:46;;;;;;;12.98;5.93;;;8.00;96.20;;;;;;5112102;28;20495;-72
2023/03/18 04:03:12;;;;;;;13.07;5.45;;;7.80;96.40;;;;;;5112326;28;20098;-73
2023/03/18 04:05:38;;;;;;;18.65;5.90;;;7.80;96.80;;;;;;5111997;28;20024;-72
2023/03/18 04:08:04;;;;;;;10.67;5.57;;;7.80;96.70;;;;;;5111705;28;20631;-73
2023/03/18 04:10:30;;;;;;;8.75;4.88;;;7.80;96.70;;;;;;5113105;28;20850;-72
2023/03/18 04:12:56;;;;;;;21.45;7.10;;;7.70;96.80;;;;;;5129333;27;20060;-72
2023/03/18 04:15:21;;;;;;;17.43;5.97;;;7.70;97.00;;;;;;5112543;28;20116;-72
2023/03/18 04:17:50;;;;;;;9.70;5.90;;;7.60;97.10;;;;;;5128543;27;20136;-72
2023/03/18 04:20:16;;;;;;;12.73;5.65;;;7.70;96.90;;;;;;5111336;28;20072;-72
2023/03/18 04:22:43;;;;;;;12.10;5.20;;;7.60;97.30;;;;;;5112498;28;20031;-72
2023/03/18 04:25:10;;;;;;;10.20;5.00;;;7.60;97.30;;;;;;5111131;28;20027;-72
2023/03/18 04:27:36;;;;;;;14.00;5.60;;;7.60;97.20;;;;;;5113593;28;20027;-73
2023/03/18 04:30:04;;;;;;;11.23;5.47;;;7.60;97.40;;;;;;5112861;28;20031;-79
2023/03/18 04:32:30;;;;;;;12.15;5.45;;;7.60;97.40;;;;;;5110356;27;20561;-72
2023/03/18 04:34:56;;;;;;;13.83;5.27;;;7.50;97.60;;;;;;5116641;27;20038;-73
2023/03/18 04:37:22;;;;;;;12.98;5.75;;;7.30;98.10;;;;;;5115772;27;20050;-73
2023/03/18 04:39:49;;;;;;;13.07;5.40;;;7.30;98.30;;;;;;5123731;27;20039;-73
2023/03/18 04:42:16;;;;;;;16.70;5.63;;;7.20;98.40;;;;;;5104462;27;20493;-72
2023/03/18 04:44:42;;;;;;;11.77;5.88;;;7.30;98.40;;;;;;5106861;27;20035;-73
2023/03/18 04:47:08;;;;;;;10.68;5.07;;;7.40;98.30;;;;;;5118092;27;20035;-73
2023/03/18 04:49:34;;;;;;;11.95;4.63;;;7.30;98.40;;;;;;5113186;27;20106;-73
2023/03/18 04:52:00;;;;;;;10.27;4.63;;;7.20;99.10;;;;;;5109129;27;20452;-73
2023/03/18 04:54:27;;;;;;;10.00;4.85;;;7.10;98.80;;;;;;5115714;27;20035;-73
2023/03/18 04:56:53;;;;;;;15.48;4.80;;;7.10;99.30;;;;;;5116302;27;20054;-73
2023/03/18 04:59:19;;;;;;;12.73;4.88;;;7.30;98.50;;;;;;5115344;27;20035;-72
2023/03/18 05:01:45;;;;;;;10.82;4.65;;;7.30;99.00;;;;;;5106136;28;20023;-73
2023/03/18 05:04:11;;;;;;;12.38;4.97;;;7.30;98.70;;;;;;5116067;27;20092;-73
2023/03/18 05:06:37;;;;;;;12.50;5.00;;;7.30;98.70;;;;;;5107144;27;20573;-73
2023/03/18 05:09:07;;;;;;;14.93;4.82;;;7.40;98.70;;;;;;5126154;27;20028;-72
2023/03/18 05:11:33;;;;;;;9.95;4.50;;;7.50;98.40;;;;;;5117993;27;20140;-73
2023/03/18 05:13:59;;;;;;;8.48;4.18;;;7.40;98.60;;;;;;5113551;27;20049;-73
2023/03/18 05:16:25;;;;;;;13.93;5.80;;;7.50;98.30;;;;;;5114887;27;20027;-73
2023/03/18 05:18:51;;;;;;;14.17;5.80;;;7.50;98.30;;;;;;5117158;27;20028;-73
2023/03/18 05:21:17;;;;;;;11.32;6.32;;;7.40;98.40;;;;;;5107113;28;20027;-73
2023/03/18 05:23:43;;;;;;;15.97;5.90;;;7.40;98.50;;;;;;5126431;27;20419;-73
2023/03/18 05:26:10;;;;;;;13.57;7.23;;;7.60;97.90;;;;;;5104341;27;20108;-72
2023/03/18 05:28:36;;;;;;;17.50;7.15;;;7.60;98.30;;;;;;5116201;27;20023;-73
2023/03/18 05:31:02;;;;;;;12.48;6.97;;;7.60;98.30;;;;;;5112049;27;20209;-72
2023/03/18 05:33:28;;;;;;;13.48;7.28;;;7.70;97.60;;;;;;5105823;28;20031;-73
2023/03/18 05:35:55;;;;;;;15.32;7.13;;;7.80;97.60;;;;;;5103210;27;20483;-72
2023/03/18 05:38:21;;;;;;;11.60;6.68;;;7.80;97.40;;;;;;5112159;27;20039;-72
2023/03/18 05:40:46;;;;;;;14.93;7.33;;;7.80;97.90;;;;;;5113735;27;20031;-72
2023/03/18 05:43:12;;;;;;;16.83;8.07;;;7.90;97.60;;;;;;5113418;27;20030;-72
2023/03/18 05:45:38;;;;;;;18.87;8.10;;;7.90;97.10;;;;;;5112509;27;20050;-73
2023/03/18 05:48:05;;;;;;;16.98;8.10;;;7.90;96.60;;;;;;5105152;27;20035;-73
2023/03/18 05:50:36;;;;;;;13.40;7.28;;;7.90;96.70;;;;;;5115075;27;20035;-73
2023/03/18 05:53:04;;;;;;;16.58;7.50;;;8.00;96.80;;;;;;5113976;27;20032;-73
2023/03/18 05:55:30;;;;;;;15.57;7.18;;;7.90;96.80;;;;;;5111078;27;20044;-73
2023/03/18 05:57:57;;;;;;;12.55;6.97;;;8.00;96.50;;;;;;5106250;27;20051;-73
2023/03/18 06:00:24;;;;;;;19.50;7.43;;;8.10;96.50;;;;;;5103334;27;20122;-72
2023/03/18 06:02:51;;;;;;;17.00;7.80;;;8.20;96.80;;;;;;5111675;27;20024;-73
2023/03/18 06:05:17;;;;;;;14.82;8.30;;;8.00;97.00;;;;;;5110445;27;20027;-72
2023/03/18 06:07:44;;;;;;;16.90;7.90;;;8.10;96.80;;;;;;5107194;28;20575;-73
2023/03/18 06:10:10;;;;;;;;;;;8.10;96.80;;;;;;5110708;27;20844;-73
2023/03/18 06:12:36;;;;;;;23.75;8.38;;;8.30;96.90;;;;;;5106668;27;19959;-73
2023/03/18 06:15:02;;;;;;;16.92;8.13;;;8.30;96.50;;;;;;5109745;27;20047;-72
2023/03/18 06:17:28;;;;;;;16.80;8.13;;;8.40;96.90;;;;;;5107336;27;20032;-73
2023/03/18 06:19:53;;;;;;;16.03;7.83;;;8.40;96.30;;;;;;5112721;27;20032;-73
2023/03/18 06:22:19;;;;;;;18.80;9.13;;;8.60;96.40;;;;;;5106282;27;20034;-72
2023/03/18 06:24:45;;;;;;;17.08;8.35;;;8.70;95.30;;;;;;5107037;27;20023;-73
2023/03/18 06:27:10;;;;;;;19.40;9.37;;;8.80;95.40;;;;;;5108446;28;20110;-72
2023/03/18 06:29:36;;;;;;;21.57;8.50;;;9.00;95.40;;;;;;5107261;28;20030;-72
2023/03/18 06:32:02;;;;;;;18.57;8.33;;;9.10;94.60;;;;;;5103436;28;20118;-73
2023/03/18 06:34:28;;;;;;;19.15;9.02;;;9.70;94.10;;;;;;5111180;28;20043;-73
2023/03/18 06:36:55;;;;;;;18.77;9.07;;;10.30;92.50;;;;;;5105987;28;20178;-73
2023/03/18 06:39:21;;;;;;;19.48;8.73;;;10.30;91.20;;;;;;5112400;27;20446;-73
2023/03/18 06:41:46;;;;;;;15.70;7.93;;;10.40;91.00;;;;;;5109432;27;20111;-73
2023/03/18 06:44:12;;;;;;;17.53;8.67;;;10.20;92.60;;;;;;5111278;27;20501;-73
2023/03/18 06:46:39;;;;;;;20.60;8.30;;;10.20;92.00;;;;;;5107208;28;20096;-73
2023/03/18 06:49:05;;;;;;;16.80;7.93;;;10.20;92.40;;;;;;5109605;28;20027;-73
2023/03/18 06:51:33;;;;;;;14.20;8.00;;;10.00;92.50;;;;;;5107032;27;20051;-73
2023/03/18 06:53:59;;;;;;;17.35;8.68;;;10.10;92.90;;;;;;5105813;28;20028;-73
2023/03/18 06:56:24;;;;;;;21.08;9.90;;;10.20;92.40;;;;;;5109810;28;20132;-73
2023/03/18 06:58:50;;;;;;;17.52;9.18;;;10.10;91.80;;;;;;5108163;28;20524;-72
2023/03/18 07:01:16;;;;;;;21.05;10.40;;;10.20;92.50;;;;;;5117713;27;20554;-71
2023/03/18 07:03:42;;;;;;;21.80;11.10;;;10.20;91.90;;;;;;5099048;28;20498;-72
2023/03/18 07:06:11;;;;;;;20.10;10.07;;;10.20;91.10;;;;;;5109117;27;20392;-71
2023/03/18 07:08:38;;;;;;;22.88;10.02;;;10.40;91.30;;;;;;5109974;28;20086;-72
2023/03/18 07:11:06;;;;;;;20.08;11.02;;;11.00;91.40;;;;;;5110819;28;20027;-72
2023/03/18 07:13:33;;;;;;;23.73;11.50;;;11.70;87.50;;;;;;5109879;27;20032;-71
2023/03/18 07:15:59;;;;;;;23.88;10.70;;;12.90;81.70;;;;;;5113373;28;20476;-73
2023/03/18 07:18:25;;;;;;;26.10;10.63;;;14.20;77.20;;;;;;5113433;27;20099;-73
2023/03/18 07:20:51;;;;;;;25.90;12.13;;;13.50;76.00;;;;;;5113316;27;20068;-72
2023/03/18 07:23:16;;;;;;;21.20;11.73;;;13.00;79.60;;;;;;5112813;27;20285;-72
2023/03/18 07:25:43;;;;;;;25.80;11.77;;;12.40;83.00;;;;;;5107413;27;20133;-73
2023/03/18 07:28:09;;;;;;;24.85;12.75;;;12.80;80.20;;;;;;5108515;27;20481;-72
2023/03/18 07:30:35;;;;;;;29.95;12.80;;;14.30;75.40;;;;;;5118672;27;20032;-73
2023/03/18 07:33:02;;;;;;;25.40;12.60;;;16.00;68.50;;;;;;5111067;27;20042;-71
2023/03/18 07:35:28;;;;;;;;;;;15.20;68.90;;;;;;5101970;27;20039;-72
2023/03/18 07:37:53;;;;;;;24.13;11.90;;;15.00;70.70;;;;;;5101917;27;19916;-72
2023/03/18 07:40:19;;;;;;;21.87;11.27;;;15.70;68.50;;;;;;5109316;27;20016;-71
2023/03/18 07:42:45;;;;;;;23.77;12.32;;;16.50;65.30;;;;;;5107806;27;20027;-72
2023/03/18 07:45:11;;;;;;;21.87;11.00;;;16.90;64.80;;;;;;5115152;27;20035;-72
2023/03/18 07:47:37;;;;;;;23.52;11.68;;;16.80;66.80;;;;;;5109731;27;20024;-71
2023/03/18 07:50:04;;;;;;;22.88;11.65;;;17.30;66.20;;;;;;5106924;27;20031;-73
2023/03/18 07:52:30;;;;;;;23.75;11.68;;;18.60;63.60;;;;;;5112908;27;20027;-72
2023/03/18 07:54:55;;;;;;;20.73;12.13;;;19.60;57.70;;;;;;5112395;27;20405;-73
2023/03/18 07:57:22;;;;;;;23.80;11.63;;;19.50;57.10;;;;;;5107700;27;20725;-73
2023/03/18 07:59:48;;;;;;;25.27;13.63;;;20.20;56.90;;;;;;5111876;27;20024;-73
2023/03/18 08:02:14;;;;;;;23.83;12.80;;;19.90;54.90;;;;;;5117188;27;20077;-72
2023/03/18 08:04:42;;;;;;;20.27;12.32;;;20.10;52.20;;;;;;5109125;27;20023;-73
2023/03/18 08:07:08;;;;;;;21.10;12.20;;;20.90;51.20;;;;;;5104632;28;20514;-72
2023/03/18 08:09:35;;;;;;;20.77;12.05;;;20.50;52.50;;;;;;5112041;27;20050;-73
2023/03/18 08:12:01;;;;;;;;;;;21.50;51.70;;;;;;5120129;27;20041;-73
2023/03/18 08:14:27;;;;;;;22.65;13.20;;;20.90;49.40;;;;;;5118401;27;19973;-73
2023/03/18 08:16:52;;;;;;;27.93;13.60;;;21.00;48.80;;;;;;5117009;27;20493;-73
2023/03/18 08:19:18;;;;;;;26.03;14.30;;;21.30;49.00;;;;;;5125208;27;20480;-73
2023/03/18 08:21:44;;;;;;;24.90;13.23;;;21.70;47.70;;;;;;5108883;27;20019;-73
2023/03/18 08:24:10;;;;;;;23.17;13.33;;;21.70;48.80;;;;;;5117117;27;20023;-72
2023/03/18 08:26:36;;;;;;;22.55;13.07;;;23.30;47.10;;;;;;5110260;27;20023;-76
2023/03/18 08:29:01;;;;;;;28.77;13.80;;;24.50;44.60;;;;;;5109807;27;20575;-73
2023/03/18 08:31:27;;;;;;;26.63;13.87;;;23.90;44.10;;;;;;5112813;27;20031;-75
2023/03/18 08:33:54;;;;;;;28.27;13.57;;;25.20;45.40;;;;;;5112447;27;20059;-72
2023/03/18 08:36:20;;;;;;;21.73;13.55;;;24.40;42.70;;;;;;5111852;28;20034;-72
2023/03/18 08:38:46;;;;;;;20.15;13.30;;;24.50;43.00;;;;;;5106449;27;20468;-71
2023/03/18 08:41:11;;;;;;;21.83;13.70;;;24.00;42.60;;;;;;5111857;27;20154;-77
2023/03/18 08:43:38;;;;;;;25.75;13.75;;;24.90;43.10;;;;;;5115126;27;20034;-72
2023/03/18 08:46:05;;;;;;;21.60;12.68;;;24.10;43.80;;;;;;5114617;27;20035;-73
2023/03/18 08:48:31;;;;;;;21.73;12.88;;;23.80;43.20;;;;;;5108838;27;20548;-72
2023/03/18 08:50:57;;;;;;;23.35;13.75;;;24.10;43.70;;;;;;5111674;27;20034;-74
2023/03/18 08:53:22;;;;;;;22.58;13.55;;;21.30;46.10;;;;;;5107049;28;20407;-76
2023/03/18 08:55:48;;;;;;;24.42;14.30;;;20.50;46.70;;;;;;5111830;27;20035;-73
2023/03/18 08:58:14;;;;;;;20.57;12.33;;;21.90;46.90;;;;;;5114863;27;20323;-72
2023/03/18 09:00:41;;;;;;;23.30;13.88;;;21.60;46.10;;;;;;5108694;27;20028;-73
2023/03/18 09:03:08;;;;;;;22.92;14.98;;;20.70;47.60;;;;;;5108443;27;20093;-72
2023/03/18 09:05:34;;;;;;;22.70;11.93;;;21.00;47.00;;;;;;5105328;27;20046;-73
2023/03/18 09:08:00;;;;;;;23.00;13.50;;;19.90;49.40;;;;;;5108983;27;20032;-74
2023/03/18 09:10:26;;;;;;;23.30;13.73;;;19.50;48.90;;;;;;5108872;27;20080;-75
2023/03/18 09:12:52;;;;;;;28.35;14.98;;;19.00;48.60;;;;;;5105505;27;20163;-77
2023/03/18 09:15:19;;;;;;;21.98;13.88;;;18.40;51.00;;;;;;5107034;27;20062;-72
2023/03/18 09:17:47;;;;;;;20.10;11.90;;;18.50;51.80;;;;;;5107177;28;20062;-74
2023/03/18 09:20:15;;;;;;;30.08;17.25;;;19.00;50.50;;;;;;5110241;27;20648;-74
2023/03/18 09:22:42;;;;;;;24.00;13.70;;;19.10;56.50;;;;;;5110774;27;20073;-75
2023/03/18 09:25:08;;;;;;;23.98;14.35;;;18.20;52.00;;;;;;5111181;27;20035;-80
2023/03/18 09:27:34;;;;;;;22.42;13.32;;;17.70;52.50;;;;;;5112194;27;20032;-79
2023/03/18 09:29:59;;;;;;;28.33;14.73;;;17.30;52.60;;;;;;5108846;28;20031;-75
2023/03/18 09:32:25;;;;;;;26.60;14.53;;;17.40;53.90;;;;;;5108877;27;20110;-77
2023/03/18 09:34:51;;;;;;;21.85;13.52;;;17.60;55.70;;;;;;5109035;27;20074;-69
2023/03/18 09:37:17;;;;;;;;;;;17.50;53.70;;;;;;5110345;27;20024;-70
2023/03/18 09:39:43;;;;;;;23.80;13.55;;;17.30;56.40;;;;;;5107118;27;19915;-70
2023/03/18 09:42:25;;;;;;;21.85;13.50;;;17.40;52.60;;;;;;5109027;28;20034;-70
2023/03/18 09:44:57;;;;;;;22.98;13.15;;;17.50;54.20;;;;;;5108177;27;20035;-70
2023/03/18 09:47:37;;;;;;;20.88;13.02;;;17.20;55.70;;;;;;5108996;27;20034;-70
2023/03/18 09:50:21;;;;;;;22.25;13.48;;;17.30;55.40;;;;;;5107945;27;20031;-70
2023/03/18 09:52:52;;;;;;;24.05;13.32;;;17.10;53.50;;;;;;5105197;27;20024;-69
2023/03/18 09:55:39;;;;;;;21.20;12.40;;;17.30;55.90;;;;;;5106534;27;20036;-71
2023/03/18 09:58:33;;;;;;;24.80;14.38;;;17.20;56.60;;;;;;5106932;27;20104;-70
2023/03/18 10:01:02;;;;;;;25.77;13.60;;;17.30;57.80;;;;;;5097390;27;20046;-70
2023/03/18 10:03:40;;;;;;;24.13;12.82;;;17.20;54.50;;;;;;5108445;28;20485;-70
2023/03/18 10:06:15;;;;;;;22.77;13.23;;;16.90;55.90;;;;;;5106788;27;20036;-72
2023/03/18 10:09:12;;;;;;;22.20;12.85;;;16.50;55.70;;;;;;5108371;27;20032;-74
2023/03/18 10:11:41;;;;;;;23.67;13.05;;;16.50;56.70;;;;;;5078429;27;20043;-73
2023/03/18 10:14:16;;;;;;;22.70;13.07;;;16.70;55.30;;;;;;5108594;27;20446;-70
2023/03/18 10:17:26;;;;;;;23.25;13.52;;;16.50;54.40;;;;;;5107759;28;20059;-72
2023/03/18 10:19:57;;;;;;;20.35;11.60;;;16.60;54.90;;;;;;5042637;28;20075;-72
2023/03/18 10:22:56;;;;;;;21.85;12.82;;;16.40;55.60;;;;;;5043834;28;20052;-73
2023/03/18 10:25:22;;;;;;;19.08;11.95;;;16.20;54.50;;;;;;5091579;28;20435;-72
2023/03/18 10:28:04;;;;;;;20.17;11.70;;;16.30;55.40;;;;;;5106261;28;20024;-73
2023/03/18 10:30:47;;;;;;;21.63;12.77;;;16.20;55.40;;;;;;5109327;28;20028;-71
2023/03/18 10:33:22;;;;;;;22.92;10.90;;;16.20;55.40;;;;;;5110365;28;20038;-73
2023/03/18 10:35:56;;;;;;;32.55;11.40;;;16.10;55.30;;;;;;5109061;28;20035;-72
2023/03/18 10:38:25;;;;;;;18.33;10.77;;;16.20;56.70;;;;;;5113835;27;20070;-73
2023/03/18 10:40:51;;;;;;;19.38;11.13;;;16.40;56.70;;;;;;5108194;28;20030;-75
2023/03/18 10:43:21;;;;;;;24.05;10.80;;;16.30;54.40;;;;;;5108171;28;20023;-77
2023/03/18 10:45:53;;;;;;;17.85;9.85;;;16.20;54.10;;;;;;5103340;28;20042;-73
2023/03/18 10:48:19;;;;;;;20.75;10.27;;;16.30;54.80;;;;;;5109011;28;20027;-74
2023/03/18 10:51:06;;;;;;;21.90;9.30;;;16.10;53.30;;;;;;5110832;27;20043;-76
2023/03/18 10:53:50;;;;;;;19.27;8.98;;;16.10;53.30;;;;;;5115042;27;20056;-72
2023/03/18 10:56:15;;;;;;;15.32;8.77;;;16.30;54.80;;;;;;5112807;27;20138;-73
2023/03/18 10:58:41;;;;;;;17.90;8.90;;;16.10;53.80;;;;;;5111420;27;20206;-71
2023/03/18 11:01:13;;;;;;;15.77;8.38;;;16.10;55.00;;;;;;5108830;27;20036;-70
2023/03/18 11:03:47;;;;;;;17.95;8.95;;;16.20;54.60;;;;;;5111554;27;20576;-75
2023/03/18 11:06:24;;;;;;;15.43;7.88;;;16.60;54.60;;;;;;5109908;27;20031;-72
2023/03/18 11:08:58;;;;;;;18.17;8.90;;;16.40;54.20;;;;;;5111766;27;20024;-73
2023/03/18 11:11:32;;;;;;;21.90;8.80;;;16.70;54.50;;;;;;5111497;27;20023;-73
2023/03/18 11:14:00;;;;;;;19.98;9.52;;;16.90;55.30;;;;;;5112003;27;20110;-73
2023/03/18 11:16:32;;;;;;;16.02;7.75;;;16.90;54.30;;;;;;5110988;28;20529;-73
2023/03/18 11:18:58;;;;;;;14.38;8.27;;;17.10;54.60;;;;;;5112402;27;20043;-73
2023/03/18 11:21:27;;;;;;;14.77;8.52;;;16.90;53.30;;;;;;5114727;27;20110;-72
2023/03/18 11:24:09;;;;;;;16.52;8.88;;;16.90;53.10;;;;;;5111433;27;20027;-73
2023/03/18 11:26:46;;;;;;;15.50;7.82;;;16.90;52.30;;;;;;5110927;27;20038;-73
2023/03/18 11:29:17;;;;;;;12.88;7.75;;;16.90;53.30;;;;;;5112761;27;20031;-73
2023/03/18 11:31:57;;;;;;;13.00;7.50;;;17.10;52.10;;;;;;5112460;27;20032;-73
2023/03/18 11:34:28;;;;;;;16.20;8.20;;;17.40;53.10;;;;;;5109879;27;20038;-71
2023/03/18 11:36:59;;;;;;;23.27;9.20;;;17.50;53.00;;;;;;5113645;27;20039;-77
2023/03/18 11:39:29;;;;;;;15.95;7.78;;;17.40;52.10;;;;;;5112151;27;20019;-73
2023/03/18 11:41:56;;;;;;;13.93;7.18;;;17.20;51.70;;;;;;5111068;27;20043;-73
2023/03/18 11:44:31;;;;;;;14.48;7.85;;;17.70;52.10;;;;;;5111458;28;20024;-73
2023/03/18 11:47:09;;;;;;;16.92;7.95;;;17.60;52.20;;;;;;5126218;27;20027;-73
2023/03/18 11:49:36;;;;;;;14.45;7.15;;;17.50;53.60;;;;;;5110656;27;20027;-74
2023/03/18 11:52:05;;;;;;;13.57;6.50;;;17.80;53.80;;;;;;5110346;27;20044;-74
2023/03/18 11:54:52;;;;;;;13.57;7.25;;;17.90;54.10;;;;;;5109689;27;20417;-74
2023/03/18 11:57:49;;;;;;;10.73;6.22;;;17.90;53.80;;;;;;5109273;27;20028;-73
2023/03/18 12:00:32;;;;;;;14.85;7.60;;;17.50;54.30;;;;;;5110609;28;20665;-73
2023/03/18 12:03:36;;;;;;;13.88;7.28;;;17.60;54.50;;;;;;5108187;27;20040;-74
2023/03/18 12:06:15;;;;;;;13.48;7.15;;;17.40;53.70;;;;;;5066064;28;20365;-74
2023/03/18 12:09:10;;;;;;;13.63;6.82;;;17.40;52.50;;;;;;5111593;27;20535;-75
2023/03/18 12:11:41;;;;;;;15.10;7.70;;;17.20;53.50;;;;;;5107441;27;20032;-74
2023/03/18 12:14:24;;;;;;;11.70;6.97;;;17.40;54.20;;;;;;5109028;27;20088;-74
2023/03/18 12:17:29;;;;;;;14.00;6.78;;;17.50;52.30;;;;;;5104700;27;20031;-74
2023/03/18 12:20:17;;;;;;;11.32;6.35;;;17.50;54.00;;;;;;5109955;27;20031;-74
2023/03/18 12:23:03;;;;;;;16.75;7.32;;;17.60;54.50;;;;;;5122667;27;20680;-74
2023/03/18 12:25:40;;;;;;;13.13;6.93;;;17.50;54.50;;;;;;5109072;27;20028;-74
2023/03/18 12:28:06;;;;;;;14.07;6.82;;;17.40;53.60;;;;;;5108585;27;20131;-74
2023/03/18 12:30:52;;;;;;;11.67;7.07;;;17.70;54.00;;;;;;5108646;27;20181;-74
2023/03/18 12:33:24;;;;;;;17.23;6.63;;;17.50;53.50;;;;;;5109314;28;20039;-75
2023/03/18 12:36:28;;;;;;;14.70;7.45;;;17.60;55.10;;;;;;5111843;27;20039;-74
2023/03/18 12:38:57;;;;;;;14.95;7.88;;;17.80;54.60;;;;;;5110499;27;20040;-74
2023/03/18 12:41:34;;;;;;;10.35;6.53;;;17.80;53.60;;;;;;5110447;27;20034;-74
2023/03/18 12:44:26;;;;;;;14.70;7.43;;;17.90;54.10;;;;;;5108351;27;20181;-74
2023/03/18 12:47:08;;;;;;;12.90;7.50;;;18.10;56.10;;;;;;5107619;27;20039;-74
2023/03/18 12:49:43;;;;;;;12.18;7.22;;;17.90;53.80;;;;;;5109341;27;20028;-74
2023/03/18 12:52:43;;;;;;;11.98;6.75;;;17.70;54.40;;;;;;5111017;27;20038;-74
2023/03/18 12:55:22;;;;;;;15.27;7.10;;;18.00;54.70;;;;;;5095722;27;20575;-73